Latest Weather Observations for Norfolk Island

IDN60801

Issued at 4:05 am EST Tuesday 23 September 2014 (issued every 30 minutes, with the page automatically refreshed every 10 minutes)

About weather observations | Map of weather stations | Latest weather observations for NSW | Other Formats
Station Details ID: 200288 Name: NORFOLK ISLAND AERO Lat: -29.04 Lon: 167.94 Height: 111.73 m
Data from the previous 72 hours. | See also: Recent months at Norfolk Island
Date/Time
EST
Temp
°C
App
Temp
°C
Dew
Point
Rel
Hum
%
Delta-T
°C
Wind Press
QNH
hPa
Press
MSL
hPa
Rain
since 9 am
mm
Dir
 
Spd
km/h
Gust
km/h
Spd
kts
Gust
kts
23/04:00am 14.2 10.3 12.2 88 1.1 SSE 24 37 13 20 1023.1 - 0.6
23/03:30am 14.8 12.0 11.4 80 1.8 S 17 26 9 14 1022.5 - 0.6
23/03:00am 14.5 11.2 11.5 82 1.6 S 20 30 11 16 1022.0 - 0.6
23/02:30am 14.9 13.0 11.8 82 1.7 S 13 20 7 11 1022.2 - 0.2
23/02:00am 14.7 12.3 11.5 81 1.7 SSW 15 22 8 12 1022.6 - 0.2
23/01:30am 14.3 10.3 11.9 85 1.3 S 24 35 13 19 1022.3 1022.2 0.2
23/01:22am 14.3 9.6 11.9 85 1.3 S 28 35 15 19 1022.3 - 0.2
23/01:14am 14.0 13.0 12.2 89 1.0 S 9 11 5 6 1022.5 - 0.2
23/01:00am 13.7 10.6 12.2 91 0.8 S 20 33 11 18 1022.8 - 0.2
23/12:56am 13.7 9.8 12.2 91 0.8 S 24 33 13 18 1022.9 - 0.2
23/12:30am 15.4 12.4 10.5 72 2.6 S 17 26 9 14 1022.7 - 0.2
23/12:00am 15.2 11.6 10.0 71 2.7 S 19 26 10 14 1023.1 - 0.2
 
Date/Time
EST
Temp
°C
App
Temp
°C
Dew
Point
Rel
Hum
%
Delta-T
°C
Wind Press
QNH
hPa
Press
MSL
hPa
Rain
since 9 am
mm
Dir
 
Spd
km/h
Gust
km/h
Spd
kts
Gust
kts
22/11:30pm 15.7 12.0 9.5 66 3.2 S 19 28 10 15 1023.2 - 0.2
22/11:00pm 15.6 12.3 9.6 67 3.1 S 17 28 9 15 1023.5 - 0.2
22/10:30pm 15.7 12.1 10.0 69 3.0 S 19 30 10 16 1023.3 1023.1 0.2
22/10:00pm 15.6 11.9 9.6 67 3.1 S 19 28 10 15 1023.2 - 0.2
22/09:30pm 15.8 11.4 10.3 70 2.9 S 24 33 13 18 1022.8 - 0.2
22/09:00pm 16.1 11.6 10.0 67 3.2 S 24 32 13 17 1022.8 - 0.2
22/08:30pm 15.9 11.6 8.0 59 4.0 S 20 32 11 17 1022.5 - 0.2
22/08:00pm 16.0 10.9 7.8 58 4.1 S 24 33 13 18 1022.5 - 0.2
22/07:30pm 15.9 10.6 8.4 61 3.8 S 26 37 14 20 1022.6 1022.5 0.2
22/07:00pm 16.1 11.2 9.8 66 3.3 S 26 35 14 19 1022.4 - 0.2
22/06:30pm 15.9 11.4 10.0 68 3.1 S 24 44 13 24 1021.9 - 0.2
22/06:00pm 15.9 10.0 9.1 64 3.5 SSW 30 37 16 20 1021.9 - 0.2
22/05:30pm 15.8 11.3 9.9 68 3.1 SSW 24 33 13 18 1021.8 - 0.2
22/05:00pm 15.1 12.1 12.7 85 1.3 S 20 32 11 17 1021.7 - 0.2
22/04:38pm 15.2 10.1 13.0 87 1.2 SSW 32 50 17 27 1021.4 - 0.0
22/04:30pm 16.0 11.2 11.8 76 2.3 SSW 28 35 15 19 1021.3 1021.2 0.0
22/04:11pm 15.6 12.0 11.9 78 2.0 SSW 22 32 12 17 1021.1 - 0.0
22/04:00pm 15.6 11.3 13.1 85 1.4 S 28 43 15 23 1021.0 - 0.0
22/03:30pm 17.1 12.9 11.2 68 3.2 SSW 24 35 13 19 1020.6 - 0.0
22/03:00pm 16.7 12.6 11.6 72 2.8 SSW 24 37 13 20 1020.4 - 0.0
22/02:30pm 17.3 12.9 11.6 69 3.1 SW 26 35 14 19 1020.3 - 0.0
22/02:00pm 17.7 13.4 10.6 63 3.8 SSW 24 35 13 19 1020.2 - 0.0
22/01:43pm 17.6 12.0 10.3 62 3.9 SSW 30 48 16 26 1020.2 - 0.0
22/01:30pm 17.8 11.6 9.4 58 4.4 SSW 32 48 17 26 1020.3 1020.2 0.0
22/01:09pm 17.4 10.5 8.7 56 4.5 SSW 35 54 19 29 1020.4 - 0.0
22/01:00pm 18.4 10.9 9.3 55 4.8 SW 39 52 21 28 1020.4 - 0.0
22/12:30pm 18.0 11.4 9.9 59 4.3 SSW 35 43 19 23 1020.7 - 0.0
22/12:00pm 18.6 12.8 10.9 61 4.2 SW 32 41 17 22 1020.9 - 0.0
22/11:53am 18.7 13.4 11.2 61 4.1 SW 30 48 16 26 1021.0 - 0.0
22/11:30am 18.1 11.9 10.0 59 4.3 SW 33 46 18 25 1021.0 - 0.0
22/11:12am 18.1 12.0 9.8 58 4.4 SW 32 50 17 27 1021.2 - 0.0
22/11:00am 18.4 12.1 11.0 62 4.0 SW 35 44 19 24 1021.3 - 0.0
22/10:30am 18.2 12.2 10.8 62 4.0 SW 33 43 18 23 1021.4 1021.3 0.0
22/10:00am 18.0 12.3 11.0 63 3.8 SW 32 52 17 28 1021.5 - 0.0
22/09:57am 18.4 12.7 11.0 62 4.0 SW 32 52 17 28 1021.5 - 0.0
22/09:30am 18.1 12.2 11.1 63 3.8 SW 33 44 18 24 1021.8 - 0.0
22/09:00am 17.9 11.9 10.2 60 4.1 SW 32 41 17 22 1021.9 - 0.0
22/08:30am 17.7 12.2 10.6 63 3.8 SW 30 41 16 22 1021.8 - 0.0
22/08:00am 17.8 12.2 11.4 66 3.5 SSW 32 48 17 26 1021.8 - 0.0
22/07:30am 17.0 11.7 11.3 69 3.1 SW 30 41 16 22 1022.0 1021.9 0.0
22/07:00am 16.2 12.2 11.8 75 2.4 SW 24 37 13 20 1021.9 - 0.0
22/06:30am 15.3 10.5 11.6 78 2.0 SW 28 50 15 27 1021.8 - 0.0
22/06:00am 16.5 11.1 9.6 63 3.6 SW 28 35 15 19 1021.5 - 0.0
22/05:30am 15.6 10.4 9.0 65 3.4 SW 26 35 14 19 1021.2 - 0.0
22/05:00am 15.4 10.1 8.3 62 3.6 SW 26 37 14 20 1020.9 - 0.0
22/04:30am 15.4 9.4 8.5 63 3.5 SSW 30 39 16 21 1020.6 1020.5 0.0
22/04:00am 15.3 9.9 8.2 62 3.6 SW 26 35 14 19 1020.4 - 0.0
22/03:30am 15.2 9.8 8.0 62 3.6 SSW 26 41 14 22 1020.2 - 0.0
22/03:00am 14.7 9.5 7.2 61 3.7 SSW 24 35 13 19 1019.9 - 0.0
22/02:30am 14.9 8.8 6.7 58 4.0 SSW 28 41 15 22 1019.7 - 0.0
22/02:00am 14.9 9.0 7.7 62 3.6 SSW 28 43 15 23 1019.6 - 0.0
22/01:30am 15.1 8.3 6.7 57 4.1 SW 32 50 17 27 1019.8 1019.7 0.0
22/01:27am 15.2 8.4 6.8 57 4.1 SSW 32 50 17 27 1019.8 - 0.0
22/01:00am 14.9 8.8 6.7 58 4.0 SSW 28 39 15 21 1019.9 - 0.0
22/12:30am 15.1 8.7 5.4 52 4.6 SSW 28 44 15 24 1020.2 - 0.0
22/12:00am 15.0 9.1 7.6 61 3.7 SW 28 41 15 22 1020.5 - 0.0
 
Date/Time
EST
Temp
°C
App
Temp
°C
Dew
Point
Rel
Hum
%
Delta-T
°C
Wind Press
QNH
hPa
Press
MSL
hPa
Rain
since 9 am
mm
Dir
 
Spd
km/h
Gust
km/h
Spd
kts
Gust
kts
21/11:30pm 15.1 10.1 7.9 62 3.6 SW 24 37 13 20 1020.7 - 0.0
21/11:00pm 15.1 8.5 6.2 55 4.3 SSW 30 43 16 23 1021.0 - 0.0
21/10:30pm 15.1 9.6 5.7 53 4.5 SW 24 37 13 20 1021.1 1021.0 0.0
21/10:00pm 15.2 9.7 6.1 54 4.4 SW 24 37 13 20 1021.3 - 0.0
21/09:30pm 15.1 10.4 7.7 61 3.7 SW 22 32 12 17 1021.4 - 0.0
21/09:00pm 15.3 9.7 8.6 64 3.4 SSW 28 39 15 21 1021.5 - 0.0
21/08:30pm 15.5 10.1 6.5 55 4.4 SW 24 33 13 18 1021.6 - 0.0
21/08:00pm 15.3 9.9 6.2 54 4.4 SW 24 32 13 17 1021.5 - 0.0
21/07:30pm 15.3 9.9 6.2 54 4.4 SW 24 35 13 19 1021.4 1021.3 0.0
21/07:00pm 15.4 9.0 5.3 51 4.8 SW 28 39 15 21 1021.3 - 0.0
21/06:30pm 15.4 10.0 6.3 54 4.4 SW 24 35 13 19 1021.1 - 0.0
21/06:00pm 15.2 10.1 6.1 54 4.4 SW 22 32 12 17 1020.7 - 0.0
21/05:30pm 15.5 10.9 6.5 55 4.4 SW 20 33 11 18 1020.5 - 0.0
21/05:00pm 15.4 10.5 7.1 57 4.1 SW 22 32 12 17 1020.0 - 0.0
21/04:30pm 15.7 10.4 7.0 56 4.3 SW 24 35 13 19 1019.5 1019.4 0.0
21/04:00pm 15.9 10.6 7.0 55 4.4 SW 24 37 13 20 1019.1 - 0.0
21/03:30pm 16.1 10.8 7.0 54 4.5 SW 24 33 13 18 1018.7 - 0.0
21/03:00pm 16.1 9.8 7.3 56 4.4 SW 30 41 16 22 1018.5 - 0.0
21/02:30pm 17.1 11.7 8.1 55 4.6 SSW 26 39 14 21 1018.4 - 0.0
21/02:00pm 17.0 11.1 7.5 53 4.8 SW 28 39 15 21 1018.1 - 0.0
21/01:30pm 16.5 10.2 7.3 54 4.6 SSW 30 37 16 20 1018.1 1018.0 0.0
21/01:00pm 17.3 11.1 7.9 54 4.8 SSW 30 39 16 21 1018.1 - 0.0
21/12:30pm 17.3 10.8 8.1 54 4.7 SSW 32 48 17 26 1018.1 - 0.0
21/12:07pm 16.4 10.1 7.4 55 4.5 SW 30 48 16 26 1018.3 - 0.0
21/12:00pm 17.6 11.8 8.0 53 4.9 SW 28 39 15 21 1018.2 - 0.0
21/11:30am 17.7 11.0 7.4 51 5.2 SW 32 43 17 23 1018.4 - 0.0
21/11:00am 17.7 10.7 6.9 49 5.4 SW 33 46 18 25 1018.4 - 0.0
21/10:30am 17.6 10.6 6.8 49 5.4 SW 33 50 18 27 1018.4 1018.3 0.0
21/10:00am 17.6 10.8 6.8 49 5.4 SW 32 48 17 26 1018.6 - 0.0
21/09:30am 17.3 10.2 8.1 54 4.7 SW 35 54 19 29 1018.5 - 0.0
21/09:00am 18.0 11.1 8.8 55 4.8 SSW 35 52 19 28 1018.4 - 0.0
21/08:42am 17.6 10.9 5.7 45 5.8 SW 30 48 16 26 1018.3 - 0.0
21/08:30am 17.4 10.3 6.2 47 5.5 SW 33 46 18 25 1018.3 - 0.0
21/08:00am 16.6 10.9 8.4 58 4.2 SW 28 43 15 23 1018.3 - 0.0
21/07:30am 16.5 10.6 9.2 62 3.8 SW 30 48 16 26 1018.3 1018.2 0.0
21/07:00am 16.5 11.2 9.8 64 3.5 SW 28 39 15 21 1017.9 - 0.0
21/06:37am 16.2 10.4 9.5 64 3.5 SW 30 54 16 29 1017.8 - 0.0
21/06:30am 16.3 11.0 10.0 66 3.3 SW 28 37 15 20 1017.7 - 0.0
21/06:04am 15.6 10.0 10.1 70 2.9 WSW 30 48 16 26 1017.4 - 0.0
21/06:00am 16.5 10.3 9.4 63 3.7 WSW 32 48 17 26 1017.4 - 0.0
21/05:30am 15.3 9.4 8.9 65 3.3 SW 30 41 16 22 1017.1 - 0.0
21/05:15am 15.3 8.8 10.4 72 2.6 WSW 35 56 19 30 1017.1 - 0.0
21/05:00am 15.6 9.4 9.4 66 3.2 WSW 32 46 17 25 1016.7 - 0.0
21/04:30am 15.2 9.7 10.5 73 2.5 SW 30 43 16 23 1016.5 1016.3 0.0
21/04:11am 14.9 9.5 11.0 77 2.1 SW 30 48 16 26 1016.3 - 0.0
21/04:00am 15.3 8.8 10.4 72 2.6 WSW 35 46 19 25 1016.2 - 0.0
21/03:30am 16.0 9.7 9.0 63 3.6 WSW 32 43 17 23 1015.7 - 0.0
21/03:00am 15.9 9.5 9.4 65 3.4 WSW 33 46 18 25 1015.7 - 0.0
21/02:30am 16.0 9.9 9.9 67 3.2 WSW 32 43 17 23 1015.6 - 0.0
21/02:18am 16.0 10.5 10.6 70 2.9 WSW 30 48 16 26 1015.6 - 0.0
21/02:00am 15.9 10.7 10.2 69 3.0 WSW 28 41 15 22 1015.7 - 0.0
21/01:30am 15.8 10.6 10.3 70 2.9 WSW 28 43 15 23 1015.8 1015.6 0.0
21/01:00am 15.6 9.5 9.9 69 3.0 WSW 32 41 17 22 1016.0 - 0.0
21/12:30am 15.9 10.0 8.9 63 3.6 WSW 30 43 16 23 1016.2 - 0.0
21/12:18am 16.1 9.7 8.5 60 3.9 WSW 32 50 17 27 1016.2 - 0.0
21/12:00am 16.2 10.1 9.7 65 3.4 WSW 32 41 17 22 1016.2 - 0.0
 
Date/Time
EST
Temp
°C
App
Temp
°C
Dew
Point
Rel
Hum
%
Delta-T
°C
Wind Press
QNH
hPa
Press
MSL
hPa
Rain
since 9 am
mm
Dir
 
Spd
km/h
Gust
km/h
Spd
kts
Gust
kts
20/11:30pm 16.4 10.5 10.6 68 3.1 W 32 44 17 24 1016.2 - 0.0
20/11:00pm 16.3 11.4 11.3 72 2.7 W 28 39 15 21 1016.2 - 0.0
20/10:30pm 16.5 10.5 10.1 66 3.4 W 32 43 17 23 1016.2 1016.0 0.0
20/10:00pm 16.3 11.0 11.3 72 2.7 W 30 48 16 26 1016.1 - 0.0
20/09:56pm 16.4 11.1 11.2 71 2.8 W 30 48 16 26 1016.1 - 0.0
20/09:30pm 16.1 11.0 10.7 70 2.9 WSW 28 37 15 20 1016.2 - 0.0
20/09:00pm 16.3 11.8 11.5 73 2.6 WSW 26 39 14 21 1016.2 - 0.0
20/08:30pm 16.8 10.8 10.0 64 3.6 W 32 41 17 22 1016.2 - 0.0
20/08:05pm 16.6 10.7 9.1 61 3.9 W 30 48 16 26 1016.3 - 0.0
20/08:00pm 16.4 10.6 9.3 63 3.7 W 30 41 16 22 1016.3 - 0.0
20/07:30pm 16.6 10.1 8.2 57 4.3 W 32 39 17 21 1016.1 1015.9 0.0
20/07:00pm 16.6 9.9 7.4 54 4.6 W 32 46 17 25 1016.1 - 0.0
20/06:30pm 16.5 10.7 9.4 63 3.7 W 30 44 16 24 1016.0 - 0.0
20/06:00pm 16.7 10.3 9.4 62 3.8 W 33 50 18 27 1016.0 - 0.0
20/05:53pm 16.8 10.5 9.1 60 4.0 W 32 50 17 27 1015.9 - 0.0
20/05:30pm 16.8 10.2 8.4 57 4.3 W 33 44 18 24 1015.7 - 0.0
20/05:08pm 16.8 9.5 7.0 52 4.9 W 35 54 19 29 1015.6 - 0.0
20/05:00pm 16.9 10.0 7.4 53 4.8 W 33 44 18 24 1015.4 - 0.0
20/04:30pm 17.0 10.5 9.1 59 4.1 W 33 44 18 24 1015.0 1014.8 0.0
20/04:00pm 17.3 11.0 9.7 61 4.0 W 33 48 18 26 1014.8 - 0.0
20/03:30pm 17.7 11.4 9.1 57 4.5 W 32 43 17 23 1014.7 - 0.0
20/03:00pm 18.1 12.3 9.6 57 4.5 W 30 41 16 22 1014.5 - 0.0
20/02:30pm 18.4 12.6 9.3 55 4.8 W 30 41 16 22 1014.5 - 0.0
20/02:00pm 18.1 12.2 8.9 55 4.8 W 30 43 16 23 1014.5 - 0.0
20/01:30pm 18.8 12.3 9.1 53 5.1 W 33 - 18 - - 1014.3 0.0
20/01:27pm 18.7 12.5 9.5 55 4.9 W 32 52 17 28 1014.6 - 0.0
20/01:00pm 17.9 12.4 10.5 62 4.0 W 30 44 16 24 1014.7 - 0.0
20/12:30pm 18.6 12.3 9.1 54 5.0 W 32 43 17 23 1015.0 - 0.0
20/12:00pm 18.5 12.2 9.0 54 5.0 W 32 41 17 22 1015.2 - 0.0
20/11:30am 18.9 11.7 7.8 48 5.7 W 35 46 19 25 1015.6 - 0.0
20/11:04am 18.9 12.7 9.2 53 5.1 W 32 50 17 27 1015.9 - 0.0
20/11:00am 18.7 13.0 9.7 56 4.8 W 30 43 16 23 1016.0 - 0.0
20/10:30am 18.4 12.4 8.8 53 5.0 W 30 41 16 22 1016.2 1016.0 0.0
20/10:00am 18.4 13.2 8.8 53 5.0 W 26 37 14 20 1016.6 - 0.0
20/09:30am 18.4 12.8 8.8 53 5.0 W 28 37 15 20 1016.8 - 0.0
20/09:00am 18.4 12.6 8.1 51 5.3 W 28 39 15 21 1016.9 - 0.0
20/08:30am 18.1 12.4 8.2 52 5.1 W 28 37 15 20 1017.2 - 0.0
20/08:00am 17.8 11.8 8.7 55 4.7 W 30 39 16 21 1017.3 - 0.0
20/07:30am 17.8 13.0 9.0 56 4.6 W 24 37 13 20 1017.3 1017.1 0.0
20/07:00am 17.2 11.5 8.2 55 4.6 W 28 39 15 21 1017.1 - 0.0
20/06:30am 17.0 11.3 8.2 56 4.5 W 28 37 15 20 1017.0 - 0.0
20/06:00am 16.6 11.7 8.4 58 4.2 W 24 33 13 18 1016.7 - 0.0
20/05:30am 16.3 11.1 8.9 61 3.8 W 26 33 14 18 1016.5 - 0.0
20/05:00am 15.8 11.1 9.2 65 3.4 W 24 33 13 18 1016.4 - 0.0
20/04:30am 15.7 10.8 8.4 62 3.7 W 24 35 13 19 1016.1 1015.9 0.0
20/04:00am 15.9 10.9 8.2 60 3.9 W 24 32 13 17 1016.0 - 0.0
20/03:30am 15.9 10.8 7.8 58 4.1 W 24 35 13 19 1015.6 - 0.0
20/03:00am 15.9 11.4 8.5 61 3.8 W 22 32 12 17 1015.5 - 0.0

Other Formats:

Comma delimited format used in spreadsheet applications
http://www.bom.gov.au/fwo/IDN60801/IDN60801.94996.axf

JavaScript Object Notation format (JSON) in row-major order
http://www.bom.gov.au/fwo/IDN60801/IDN60801.94996.json